sensor_id;sensor_type;location;lat;lon;timestamp;P1;durP1;ratioP1;P2;durP2;ratioP2
22441;SDS011;11388;54.456;9.752;2022-12-18T00:01:16;25.23;;;16.15;;
22441;SDS011;11388;54.456;9.752;2022-12-18T00:03:46;22.63;;;16.55;;
22441;SDS011;11388;54.456;9.752;2022-12-18T00:06:12;23.05;;;15.45;;
22441;SDS011;11388;54.456;9.752;2022-12-18T00:08:38;25.40;;;16.67;;
22441;SDS011;11388;54.456;9.752;2022-12-18T00:11:05;23.30;;;15.68;;
22441;SDS011;11388;54.456;9.752;2022-12-18T00:13:32;22.00;;;15.82;;
22441;SDS011;11388;54.456;9.752;2022-12-18T00:16:05;23.52;;;15.55;;
22441;SDS011;11388;54.456;9.752;2022-12-18T00:18:32;22.10;;;15.25;;
22441;SDS011;11388;54.456;9.752;2022-12-18T00:20:59;22.80;;;16.05;;
22441;SDS011;11388;54.456;9.752;2022-12-18T00:23:26;22.20;;;15.65;;
22441;SDS011;11388;54.456;9.752;2022-12-18T00:25:52;23.95;;;15.82;;
22441;SDS011;11388;54.456;9.752;2022-12-18T00:28:18;23.02;;;16.08;;
22441;SDS011;11388;54.456;9.752;2022-12-18T00:30:44;23.38;;;15.77;;
22441;SDS011;11388;54.456;9.752;2022-12-18T00:33:09;23.58;;;16.10;;
22441;SDS011;11388;54.456;9.752;2022-12-18T00:35:35;22.75;;;15.77;;
22441;SDS011;11388;54.456;9.752;2022-12-18T00:38:01;23.27;;;16.17;;
22441;SDS011;11388;54.456;9.752;2022-12-18T00:40:26;22.33;;;16.85;;
22441;SDS011;11388;54.456;9.752;2022-12-18T00:42:52;23.95;;;17.10;;
22441;SDS011;11388;54.456;9.752;2022-12-18T00:45:21;20.95;;;16.38;;
22441;SDS011;11388;54.456;9.752;2022-12-18T00:47:51;24.25;;;16.83;;
22441;SDS011;11388;54.456;9.752;2022-12-18T00:50:17;24.15;;;17.38;;
22441;SDS011;11388;54.456;9.752;2022-12-18T00:52:43;22.50;;;15.88;;
22441;SDS011;11388;54.456;9.752;2022-12-18T00:55:09;23.17;;;17.20;;
22441;SDS011;11388;54.456;9.752;2022-12-18T00:57:35;23.45;;;16.33;;
22441;SDS011;11388;54.456;9.752;2022-12-18T01:00:01;21.60;;;16.23;;
22441;SDS011;11388;54.456;9.752;2022-12-18T01:02:27;24.88;;;17.05;;
22441;SDS011;11388;54.456;9.752;2022-12-18T01:04:55;22.85;;;16.27;;
22441;SDS011;11388;54.456;9.752;2022-12-18T01:07:21;22.30;;;15.75;;
22441;SDS011;11388;54.456;9.752;2022-12-18T01:09:46;23.45;;;15.63;;
22441;SDS011;11388;54.456;9.752;2022-12-18T01:12:12;21.63;;;15.68;;
22441;SDS011;11388;54.456;9.752;2022-12-18T01:14:38;22.17;;;15.73;;
22441;SDS011;11388;54.456;9.752;2022-12-18T01:17:03;22.08;;;15.13;;
22441;SDS011;11388;54.456;9.752;2022-12-18T01:19:29;22.17;;;15.63;;
22441;SDS011;11388;54.456;9.752;2022-12-18T01:21:55;23.25;;;15.77;;
22441;SDS011;11388;54.456;9.752;2022-12-18T01:24:21;21.73;;;14.45;;
22441;SDS011;11388;54.456;9.752;2022-12-18T01:26:47;19.02;;;14.35;;
22441;SDS011;11388;54.456;9.752;2022-12-18T01:29:12;22.83;;;16.00;;
22441;SDS011;11388;54.456;9.752;2022-12-18T01:31:38;24.00;;;15.25;;
22441;SDS011;11388;54.456;9.752;2022-12-18T01:34:04;20.98;;;15.68;;
22441;SDS011;11388;54.456;9.752;2022-12-18T01:36:31;22.83;;;16.40;;
22441;SDS011;11388;54.456;9.752;2022-12-18T01:38:59;20.13;;;15.13;;
22441;SDS011;11388;54.456;9.752;2022-12-18T01:41:28;21.83;;;15.48;;
22441;SDS011;11388;54.456;9.752;2022-12-18T01:47:18;21.05;;;15.05;;
22441;SDS011;11388;54.456;9.752;2022-12-18T01:49:48;20.50;;;15.68;;
22441;SDS011;11388;54.456;9.752;2022-12-18T01:52:14;22.38;;;14.88;;
22441;SDS011;11388;54.456;9.752;2022-12-18T01:54:42;21.95;;;15.35;;
22441;SDS011;11388;54.456;9.752;2022-12-18T01:57:08;21.65;;;15.27;;
22441;SDS011;11388;54.456;9.752;2022-12-18T01:59:34;21.23;;;15.27;;
22441;SDS011;11388;54.456;9.752;2022-12-18T02:02:00;19.75;;;15.02;;
22441;SDS011;11388;54.456;9.752;2022-12-18T02:04:27;22.30;;;15.40;;
22441;SDS011;11388;54.456;9.752;2022-12-18T02:07:15;22.65;;;16.67;;
22441;SDS011;11388;54.456;9.752;2022-12-18T02:09:50;19.45;;;14.88;;
22441;SDS011;11388;54.456;9.752;2022-12-18T02:12:19;24.00;;;16.02;;
22441;SDS011;11388;54.456;9.752;2022-12-18T02:14:52;22.55;;;16.65;;
22441;SDS011;11388;54.456;9.752;2022-12-18T02:17:39;20.27;;;14.82;;
22441;SDS011;11388;54.456;9.752;2022-12-18T02:23:08;19.77;;;14.70;;
22441;SDS011;11388;54.456;9.752;2022-12-18T02:26:02;22.45;;;16.63;;
22441;SDS011;11388;54.456;9.752;2022-12-18T02:28:43;22.23;;;15.70;;
22441;SDS011;11388;54.456;9.752;2022-12-18T02:31:20;22.65;;;16.10;;
22441;SDS011;11388;54.456;9.752;2022-12-18T02:33:49;22.75;;;15.30;;
22441;SDS011;11388;54.456;9.752;2022-12-18T02:36:17;21.77;;;15.38;;
22441;SDS011;11388;54.456;9.752;2022-12-18T02:38:46;23.17;;;15.38;;
22441;SDS011;11388;54.456;9.752;2022-12-18T02:41:14;20.80;;;15.57;;
22441;SDS011;11388;54.456;9.752;2022-12-18T02:43:45;21.95;;;15.25;;
22441;SDS011;11388;54.456;9.752;2022-12-18T02:49:26;20.98;;;14.68;;
22441;SDS011;11388;54.456;9.752;2022-12-18T02:52:00;24.33;;;15.57;;
22441;SDS011;11388;54.456;9.752;2022-12-18T02:57:10;21.83;;;14.70;;
22441;SDS011;11388;54.456;9.752;2022-12-18T03:00:03;22.52;;;14.70;;
22441;SDS011;11388;54.456;9.752;2022-12-18T03:05:19;21.70;;;15.55;;
22441;SDS011;11388;54.456;9.752;2022-12-18T03:07:55;21.58;;;15.43;;
22441;SDS011;11388;54.456;9.752;2022-12-18T03:10:29;19.77;;;14.10;;
22441;SDS011;11388;54.456;9.752;2022-12-18T03:15:42;20.42;;;14.88;;
22441;SDS011;11388;54.456;9.752;2022-12-18T03:18:17;20.85;;;14.68;;
22441;SDS011;11388;54.456;9.752;2022-12-18T03:20:47;19.67;;;14.35;;
22441;SDS011;11388;54.456;9.752;2022-12-18T03:23:16;20.95;;;14.65;;
22441;SDS011;11388;54.456;9.752;2022-12-18T03:25:45;20.60;;;14.95;;
22441;SDS011;11388;54.456;9.752;2022-12-18T03:28:14;22.00;;;14.43;;
22441;SDS011;11388;54.456;9.752;2022-12-18T03:30:44;21.40;;;14.75;;
22441;SDS011;11388;54.456;9.752;2022-12-18T03:33:19;20.65;;;15.00;;
22441;SDS011;11388;54.456;9.752;2022-12-18T03:35:52;23.27;;;14.82;;
22441;SDS011;11388;54.456;9.752;2022-12-18T03:38:18;21.10;;;14.90;;
22441;SDS011;11388;54.456;9.752;2022-12-18T03:43:18;23.00;;;14.98;;
22441;SDS011;11388;54.456;9.752;2022-12-18T03:45:54;22.95;;;15.68;;
22441;SDS011;11388;54.456;9.752;2022-12-18T03:48:36;20.85;;;14.95;;
22441;SDS011;11388;54.456;9.752;2022-12-18T03:54:02;21.30;;;15.27;;
22441;SDS011;11388;54.456;9.752;2022-12-18T03:56:31;20.95;;;15.00;;
22441;SDS011;11388;54.456;9.752;2022-12-18T03:59:03;22.55;;;15.68;;
22441;SDS011;11388;54.456;9.752;2022-12-18T04:01:35;22.52;;;15.30;;
22441;SDS011;11388;54.456;9.752;2022-12-18T04:04:04;20.65;;;14.50;;
22441;SDS011;11388;54.456;9.752;2022-12-18T04:06:35;21.73;;;15.27;;
22441;SDS011;11388;54.456;9.752;2022-12-18T04:09:01;23.27;;;15.23;;
22441;SDS011;11388;54.456;9.752;2022-12-18T04:11:28;21.70;;;15.65;;
22441;SDS011;11388;54.456;9.752;2022-12-18T04:13:57;24.15;;;15.27;;
22441;SDS011;11388;54.456;9.752;2022-12-18T04:16:24;21.40;;;14.75;;
22441;SDS011;11388;54.456;9.752;2022-12-18T04:18:51;19.67;;;13.95;;
22441;SDS011;11388;54.456;9.752;2022-12-18T04:21:16;22.67;;;14.88;;
22441;SDS011;11388;54.456;9.752;2022-12-18T04:23:42;22.55;;;15.32;;
22441;SDS011;11388;54.456;9.752;2022-12-18T04:26:08;20.25;;;14.88;;
22441;SDS011;11388;54.456;9.752;2022-12-18T04:28:33;22.73;;;15.30;;
22441;SDS011;11388;54.456;9.752;2022-12-18T04:30:59;19.25;;;13.80;;
22441;SDS011;11388;54.456;9.752;2022-12-18T04:33:25;21.45;;;14.57;;
22441;SDS011;11388;54.456;9.752;2022-12-18T04:35:50;19.55;;;14.65;;
22441;SDS011;11388;54.456;9.752;2022-12-18T04:38:16;21.05;;;14.57;;
22441;SDS011;11388;54.456;9.752;2022-12-18T04:40:44;20.63;;;14.88;;
22441;SDS011;11388;54.456;9.752;2022-12-18T04:43:10;22.67;;;15.20;;
22441;SDS011;11388;54.456;9.752;2022-12-18T04:45:36;19.48;;;14.77;;
22441;SDS011;11388;54.456;9.752;2022-12-18T04:48:02;20.45;;;14.65;;
22441;SDS011;11388;54.456;9.752;2022-12-18T04:50:28;20.45;;;14.00;;
22441;SDS011;11388;54.456;9.752;2022-12-18T04:52:54;18.95;;;14.25;;
22441;SDS011;11388;54.456;9.752;2022-12-18T04:55:20;20.35;;;14.15;;
22441;SDS011;11388;54.456;9.752;2022-12-18T04:57:46;20.05;;;14.10;;
22441;SDS011;11388;54.456;9.752;2022-12-18T05:00:11;19.50;;;13.90;;
22441;SDS011;11388;54.456;9.752;2022-12-18T05:02:37;21.00;;;14.20;;
22441;SDS011;11388;54.456;9.752;2022-12-18T05:05:03;20.98;;;13.45;;
22441;SDS011;11388;54.456;9.752;2022-12-18T05:07:30;20.05;;;13.90;;
22441;SDS011;11388;54.456;9.752;2022-12-18T05:09:55;22.35;;;14.30;;
22441;SDS011;11388;54.456;9.752;2022-12-18T05:12:24;22.67;;;14.25;;
22441;SDS011;11388;54.456;9.752;2022-12-18T05:14:50;20.02;;;14.77;;
22441;SDS011;11388;54.456;9.752;2022-12-18T05:17:17;20.02;;;14.02;;
22441;SDS011;11388;54.456;9.752;2022-12-18T05:19:54;21.02;;;14.70;;
22441;SDS011;11388;54.456;9.752;2022-12-18T05:25:33;19.42;;;14.02;;
22441;SDS011;11388;54.456;9.752;2022-12-18T05:37:27;17.88;;;13.18;;
22441;SDS011;11388;54.456;9.752;2022-12-18T05:39:55;18.65;;;13.25;;
22441;SDS011;11388;54.456;9.752;2022-12-18T05:42:21;20.50;;;13.40;;
22441;SDS011;11388;54.456;9.752;2022-12-18T05:44:46;17.25;;;12.80;;
22441;SDS011;11388;54.456;9.752;2022-12-18T05:47:51;17.55;;;12.95;;
22441;SDS011;11388;54.456;9.752;2022-12-18T05:50:20;18.75;;;14.05;;
22441;SDS011;11388;54.456;9.752;2022-12-18T05:52:45;18.35;;;13.98;;
22441;SDS011;11388;54.456;9.752;2022-12-18T05:55:18;19.55;;;13.50;;
22441;SDS011;11388;54.456;9.752;2022-12-18T05:57:57;18.67;;;14.57;;
22441;SDS011;11388;54.456;9.752;2022-12-18T06:00:22;18.00;;;12.82;;
22441;SDS011;11388;54.456;9.752;2022-12-18T06:02:51;21.30;;;13.65;;
22441;SDS011;11388;54.456;9.752;2022-12-18T06:05:17;19.35;;;13.70;;
22441;SDS011;11388;54.456;9.752;2022-12-18T06:07:46;21.05;;;13.95;;
22441;SDS011;11388;54.456;9.752;2022-12-18T06:10:14;19.92;;;13.90;;
22441;SDS011;11388;54.456;9.752;2022-12-18T06:12:40;17.08;;;13.18;;
22441;SDS011;11388;54.456;9.752;2022-12-18T06:15:06;16.08;;;12.35;;
22441;SDS011;11388;54.456;9.752;2022-12-18T06:17:41;19.30;;;13.18;;
22441;SDS011;11388;54.456;9.752;2022-12-18T06:20:07;18.55;;;12.95;;
22441;SDS011;11388;54.456;9.752;2022-12-18T06:22:33;17.63;;;12.75;;
22441;SDS011;11388;54.456;9.752;2022-12-18T06:25:02;18.90;;;12.43;;
22441;SDS011;11388;54.456;9.752;2022-12-18T06:27:28;17.42;;;12.95;;
22441;SDS011;11388;54.456;9.752;2022-12-18T06:29:54;18.92;;;12.80;;
22441;SDS011;11388;54.456;9.752;2022-12-18T06:32:20;17.38;;;13.25;;
22441;SDS011;11388;54.456;9.752;2022-12-18T06:34:45;18.95;;;12.30;;
22441;SDS011;11388;54.456;9.752;2022-12-18T06:37:11;17.38;;;12.45;;
22441;SDS011;11388;54.456;9.752;2022-12-18T06:39:39;17.70;;;12.82;;
22441;SDS011;11388;54.456;9.752;2022-12-18T06:42:05;16.35;;;12.93;;
22441;SDS011;11388;54.456;9.752;2022-12-18T06:44:31;16.88;;;13.30;;
22441;SDS011;11388;54.456;9.752;2022-12-18T06:46:56;18.65;;;12.93;;
22441;SDS011;11388;54.456;9.752;2022-12-18T06:49:22;17.48;;;12.93;;
22441;SDS011;11388;54.456;9.752;2022-12-18T06:51:48;16.77;;;12.82;;
22441;SDS011;11388;54.456;9.752;2022-12-18T06:54:14;17.45;;;12.85;;
22441;SDS011;11388;54.456;9.752;2022-12-18T06:56:39;18.15;;;13.25;;
22441;SDS011;11388;54.456;9.752;2022-12-18T06:59:05;17.35;;;12.75;;
22441;SDS011;11388;54.456;9.752;2022-12-18T07:01:39;16.92;;;12.00;;
22441;SDS011;11388;54.456;9.752;2022-12-18T07:04:05;17.88;;;12.63;;
22441;SDS011;11388;54.456;9.752;2022-12-18T07:06:31;17.00;;;12.15;;
22441;SDS011;11388;54.456;9.752;2022-12-18T07:08:56;15.98;;;11.50;;
22441;SDS011;11388;54.456;9.752;2022-12-18T07:11:22;16.75;;;11.77;;
22441;SDS011;11388;54.456;9.752;2022-12-18T07:13:52;15.85;;;11.45;;
22441;SDS011;11388;54.456;9.752;2022-12-18T07:16:21;14.75;;;10.98;;
22441;SDS011;11388;54.456;9.752;2022-12-18T07:18:47;16.13;;;11.75;;
22441;SDS011;11388;54.456;9.752;2022-12-18T07:21:14;14.70;;;11.05;;
22441;SDS011;11388;54.456;9.752;2022-12-18T07:23:41;15.82;;;11.15;;
22441;SDS011;11388;54.456;9.752;2022-12-18T07:26:08;15.90;;;12.00;;
22441;SDS011;11388;54.456;9.752;2022-12-18T07:28:36;14.02;;;10.73;;
22441;SDS011;11388;54.456;9.752;2022-12-18T07:31:03;14.63;;;11.25;;
22441;SDS011;11388;54.456;9.752;2022-12-18T07:33:31;17.30;;;12.30;;
22441;SDS011;11388;54.456;9.752;2022-12-18T07:36:01;17.42;;;12.07;;
22441;SDS011;11388;54.456;9.752;2022-12-18T07:38:29;15.10;;;12.02;;
22441;SDS011;11388;54.456;9.752;2022-12-18T07:41:06;16.10;;;12.02;;
22441;SDS011;11388;54.456;9.752;2022-12-18T07:43:35;14.38;;;10.50;;
22441;SDS011;11388;54.456;9.752;2022-12-18T07:46:02;16.27;;;11.18;;
22441;SDS011;11388;54.456;9.752;2022-12-18T07:48:28;16.33;;;10.73;;
22441;SDS011;11388;54.456;9.752;2022-12-18T07:50:58;14.38;;;10.65;;
22441;SDS011;11388;54.456;9.752;2022-12-18T07:53:24;18.02;;;13.35;;
22441;SDS011;11388;54.456;9.752;2022-12-18T07:55:54;18.60;;;13.05;;
22441;SDS011;11388;54.456;9.752;2022-12-18T07:58:21;14.82;;;11.05;;
22441;SDS011;11388;54.456;9.752;2022-12-18T08:00:47;16.50;;;12.10;;
22441;SDS011;11388;54.456;9.752;2022-12-18T08:03:13;11.98;;;9.38;;
22441;SDS011;11388;54.456;9.752;2022-12-18T08:05:38;12.73;;;9.10;;
22441;SDS011;11388;54.456;9.752;2022-12-18T08:08:04;13.13;;;9.90;;
22441;SDS011;11388;54.456;9.752;2022-12-18T08:10:30;13.48;;;9.93;;
22441;SDS011;11388;54.456;9.752;2022-12-18T08:12:59;13.10;;;9.32;;
22441;SDS011;11388;54.456;9.752;2022-12-18T08:15:24;11.77;;;8.90;;
22441;SDS011;11388;54.456;9.752;2022-12-18T08:17:50;13.70;;;9.68;;
22441;SDS011;11388;54.456;9.752;2022-12-18T08:20:16;13.73;;;9.80;;
22441;SDS011;11388;54.456;9.752;2022-12-18T08:22:43;12.80;;;9.20;;
22441;SDS011;11388;54.456;9.752;2022-12-18T08:25:09;11.70;;;8.43;;
22441;SDS011;11388;54.456;9.752;2022-12-18T08:27:35;11.48;;;8.52;;
22441;SDS011;11388;54.456;9.752;2022-12-18T08:30:04;13.70;;;9.10;;
22441;SDS011;11388;54.456;9.752;2022-12-18T08:32:31;13.60;;;8.38;;
22441;SDS011;11388;54.456;9.752;2022-12-18T08:34:57;12.52;;;9.95;;
22441;SDS011;11388;54.456;9.752;2022-12-18T08:37:23;12.13;;;8.00;;
22441;SDS011;11388;54.456;9.752;2022-12-18T08:39:49;12.00;;;8.07;;
22441;SDS011;11388;54.456;9.752;2022-12-18T08:42:15;10.77;;;8.27;;
22441;SDS011;11388;54.456;9.752;2022-12-18T08:44:59;12.13;;;8.32;;
22441;SDS011;11388;54.456;9.752;2022-12-18T08:47:25;11.85;;;8.07;;
22441;SDS011;11388;54.456;9.752;2022-12-18T08:49:51;11.68;;;8.80;;
22441;SDS011;11388;54.456;9.752;2022-12-18T08:52:16;12.43;;;8.10;;
22441;SDS011;11388;54.456;9.752;2022-12-18T08:54:42;9.98;;;7.82;;
22441;SDS011;11388;54.456;9.752;2022-12-18T08:57:08;12.13;;;8.93;;
22441;SDS011;11388;54.456;9.752;2022-12-18T08:59:33;11.70;;;8.65;;
22441;SDS011;11388;54.456;9.752;2022-12-18T09:01:59;11.32;;;8.00;;
22441;SDS011;11388;54.456;9.752;2022-12-18T09:04:25;12.25;;;8.40;;
22441;SDS011;11388;54.456;9.752;2022-12-18T09:06:50;12.68;;;8.05;;
22441;SDS011;11388;54.456;9.752;2022-12-18T09:09:16;11.20;;;8.32;;
22441;SDS011;11388;54.456;9.752;2022-12-18T09:11:42;10.77;;;8.20;;
22441;SDS011;11388;54.456;9.752;2022-12-18T09:14:08;11.00;;;7.78;;
22441;SDS011;11388;54.456;9.752;2022-12-18T09:16:35;10.43;;;7.10;;
22441;SDS011;11388;54.456;9.752;2022-12-18T09:19:01;10.70;;;7.70;;
22441;SDS011;11388;54.456;9.752;2022-12-18T09:21:29;11.40;;;7.75;;
22441;SDS011;11388;54.456;9.752;2022-12-18T09:23:57;10.52;;;7.82;;
22441;SDS011;11388;54.456;9.752;2022-12-18T09:26:23;13.90;;;8.50;;
22441;SDS011;11388;54.456;9.752;2022-12-18T09:28:50;11.50;;;8.50;;
22441;SDS011;11388;54.456;9.752;2022-12-18T09:31:16;11.40;;;7.82;;
22441;SDS011;11388;54.456;9.752;2022-12-18T09:33:43;16.90;;;11.13;;
22441;SDS011;11388;54.456;9.752;2022-12-18T09:36:10;13.13;;;8.88;;
22441;SDS011;11388;54.456;9.752;2022-12-18T09:38:39;17.92;;;11.80;;
22441;SDS011;11388;54.456;9.752;2022-12-18T09:41:17;10.20;;;7.00;;
22441;SDS011;11388;54.456;9.752;2022-12-18T09:46:48;9.07;;;7.20;;
22441;SDS011;11388;54.456;9.752;2022-12-18T09:49:34;8.98;;;6.53;;
22441;SDS011;11388;54.456;9.752;2022-12-18T09:52:23;9.40;;;6.68;;
22441;SDS011;11388;54.456;9.752;2022-12-18T09:57:34;10.30;;;7.60;;
22441;SDS011;11388;54.456;9.752;2022-12-18T10:00:04;9.45;;;7.10;;
22441;SDS011;11388;54.456;9.752;2022-12-18T10:02:40;11.77;;;7.43;;
22441;SDS011;11388;54.456;9.752;2022-12-18T10:05:13;10.73;;;7.55;;
22441;SDS011;11388;54.456;9.752;2022-12-18T10:15:54;9.70;;;7.25;;
22441;SDS011;11388;54.456;9.752;2022-12-18T10:21:04;8.43;;;6.28;;
22441;SDS011;11388;54.456;9.752;2022-12-18T10:26:10;9.68;;;7.40;;
22441;SDS011;11388;54.456;9.752;2022-12-18T10:28:38;9.80;;;7.07;;
22441;SDS011;11388;54.456;9.752;2022-12-18T10:31:10;13.13;;;8.95;;
22441;SDS011;11388;54.456;9.752;2022-12-18T10:33:41;9.65;;;6.82;;
22441;SDS011;11388;54.456;9.752;2022-12-18T10:36:08;10.48;;;6.97;;
22441;SDS011;11388;54.456;9.752;2022-12-18T10:38:34;10.38;;;7.13;;
22441;SDS011;11388;54.456;9.752;2022-12-18T10:41:23;11.13;;;8.20;;
22441;SDS011;11388;54.456;9.752;2022-12-18T10:46:40;9.77;;;6.90;;
22441;SDS011;11388;54.456;9.752;2022-12-18T10:49:17;9.70;;;6.60;;
22441;SDS011;11388;54.456;9.752;2022-12-18T10:51:48;9.52;;;6.45;;
22441;SDS011;11388;54.456;9.752;2022-12-18T10:54:15;9.55;;;6.95;;
22441;SDS011;11388;54.456;9.752;2022-12-18T10:56:49;8.80;;;6.60;;
22441;SDS011;11388;54.456;9.752;2022-12-18T10:59:17;9.88;;;7.10;;
22441;SDS011;11388;54.456;9.752;2022-12-18T11:04:25;15.52;;;10.02;;
22441;SDS011;11388;54.456;9.752;2022-12-18T11:06:59;25.20;;;17.42;;
22441;SDS011;11388;54.456;9.752;2022-12-18T11:09:33;13.15;;;8.52;;
22441;SDS011;11388;54.456;9.752;2022-12-18T11:12:04;11.27;;;8.18;;
22441;SDS011;11388;54.456;9.752;2022-12-18T11:17:16;10.52;;;6.97;;
22441;SDS011;11388;54.456;9.752;2022-12-18T11:20:24;10.68;;;7.13;;
22441;SDS011;11388;54.456;9.752;2022-12-18T11:23:01;9.20;;;6.80;;
22441;SDS011;11388;54.456;9.752;2022-12-18T11:25:29;9.63;;;6.95;;
22441;SDS011;11388;54.456;9.752;2022-12-18T11:27:58;9.85;;;6.50;;
22441;SDS011;11388;54.456;9.752;2022-12-18T11:30:30;9.35;;;6.60;;
22441;SDS011;11388;54.456;9.752;2022-12-18T11:33:04;9.65;;;6.90;;
22441;SDS011;11388;54.456;9.752;2022-12-18T11:35:52;10.93;;;6.65;;
22441;SDS011;11388;54.456;9.752;2022-12-18T11:38:32;8.88;;;6.53;;
22441;SDS011;11388;54.456;9.752;2022-12-18T11:47:01;10.55;;;7.22;;
22441;SDS011;11388;54.456;9.752;2022-12-18T11:49:35;10.77;;;7.65;;
22441;SDS011;11388;54.456;9.752;2022-12-18T11:52:03;10.05;;;6.95;;
22441;SDS011;11388;54.456;9.752;2022-12-18T11:54:35;9.80;;;6.80;;
22441;SDS011;11388;54.456;9.752;2022-12-18T12:05:11;9.23;;;6.70;;
22441;SDS011;11388;54.456;9.752;2022-12-18T12:07:45;9.80;;;6.88;;
22441;SDS011;11388;54.456;9.752;2022-12-18T12:21:41;10.27;;;7.30;;
22441;SDS011;11388;54.456;9.752;2022-12-18T12:24:20;10.60;;;6.97;;
22441;SDS011;11388;54.456;9.752;2022-12-18T12:27:14;10.00;;;6.85;;
22441;SDS011;11388;54.456;9.752;2022-12-18T12:32:49;12.38;;;8.02;;
22441;SDS011;11388;54.456;9.752;2022-12-18T12:38:26;13.65;;;8.65;;
22441;SDS011;11388;54.456;9.752;2022-12-18T12:41:05;12.85;;;8.50;;
22441;SDS011;11388;54.456;9.752;2022-12-18T12:43:55;13.35;;;8.30;;
22441;SDS011;11388;54.456;9.752;2022-12-18T12:46:25;12.93;;;9.07;;
22441;SDS011;11388;54.456;9.752;2022-12-18T12:51:34;11.35;;;8.02;;
22441;SDS011;11388;54.456;9.752;2022-12-18T12:54:03;12.30;;;7.85;;
22441;SDS011;11388;54.456;9.752;2022-12-18T12:57:20;11.18;;;8.38;;
22441;SDS011;11388;54.456;9.752;2022-12-18T13:02:24;10.57;;;7.88;;
22441;SDS011;11388;54.456;9.752;2022-12-18T13:05:12;10.52;;;8.25;;
22441;SDS011;11388;54.456;9.752;2022-12-18T13:08:00;12.32;;;8.48;;
22441;SDS011;11388;54.456;9.752;2022-12-18T13:10:36;12.40;;;8.43;;
22441;SDS011;11388;54.456;9.752;2022-12-18T13:13:07;11.10;;;8.27;;
22441;SDS011;11388;54.456;9.752;2022-12-18T13:18:12;12.25;;;7.90;;
22441;SDS011;11388;54.456;9.752;2022-12-18T13:20:50;12.65;;;8.18;;
22441;SDS011;11388;54.456;9.752;2022-12-18T13:23:31;11.18;;;7.78;;
22441;SDS011;11388;54.456;9.752;2022-12-18T13:26:27;11.20;;;8.35;;
22441;SDS011;11388;54.456;9.752;2022-12-18T13:36:47;11.52;;;8.05;;
22441;SDS011;11388;54.456;9.752;2022-12-18T13:41:43;11.80;;;8.25;;
22441;SDS011;11388;54.456;9.752;2022-12-18T13:44:33;12.18;;;8.18;;
22441;SDS011;11388;54.456;9.752;2022-12-18T13:47:03;10.90;;;8.45;;
22441;SDS011;11388;54.456;9.752;2022-12-18T13:52:17;12.73;;;8.27;;
22441;SDS011;11388;54.456;9.752;2022-12-18T13:54:59;11.02;;;7.65;;
22441;SDS011;11388;54.456;9.752;2022-12-18T13:57:36;11.82;;;8.25;;
22441;SDS011;11388;54.456;9.752;2022-12-18T14:02:47;10.02;;;7.53;;
22441;SDS011;11388;54.456;9.752;2022-12-18T14:05:30;11.10;;;8.10;;
22441;SDS011;11388;54.456;9.752;2022-12-18T14:08:10;11.43;;;8.63;;
22441;SDS011;11388;54.456;9.752;2022-12-18T14:10:44;11.43;;;8.27;;
22441;SDS011;11388;54.456;9.752;2022-12-18T14:13:15;11.55;;;7.90;;
22441;SDS011;11388;54.456;9.752;2022-12-18T14:15:55;12.73;;;8.57;;
22441;SDS011;11388;54.456;9.752;2022-12-18T14:18:23;11.00;;;7.82;;
22441;SDS011;11388;54.456;9.752;2022-12-18T14:21:13;11.68;;;7.97;;
22441;SDS011;11388;54.456;9.752;2022-12-18T14:23:43;11.20;;;8.23;;
22441;SDS011;11388;54.456;9.752;2022-12-18T14:26:23;10.60;;;7.90;;
22441;SDS011;11388;54.456;9.752;2022-12-18T14:28:53;10.85;;;8.10;;
22441;SDS011;11388;54.456;9.752;2022-12-18T14:31:20;12.32;;;8.20;;
22441;SDS011;11388;54.456;9.752;2022-12-18T14:33:53;11.70;;;8.18;;
22441;SDS011;11388;54.456;9.752;2022-12-18T14:36:20;11.80;;;7.90;;
22441;SDS011;11388;54.456;9.752;2022-12-18T14:38:50;12.15;;;7.35;;
22441;SDS011;11388;54.456;9.752;2022-12-18T14:41:19;13.73;;;8.25;;
22441;SDS011;11388;54.456;9.752;2022-12-18T14:46:38;12.75;;;8.23;;
22441;SDS011;11388;54.456;9.752;2022-12-18T14:52:21;13.52;;;9.40;;
22441;SDS011;11388;54.456;9.752;2022-12-18T14:54:56;13.00;;;8.52;;
22441;SDS011;11388;54.456;9.752;2022-12-18T14:57:23;12.65;;;8.73;;
22441;SDS011;11388;54.456;9.752;2022-12-18T14:59:51;12.88;;;9.00;;
22441;SDS011;11388;54.456;9.752;2022-12-18T15:02:22;11.52;;;8.25;;
22441;SDS011;11388;54.456;9.752;2022-12-18T15:05:14;13.27;;;8.55;;
22441;SDS011;11388;54.456;9.752;2022-12-18T15:07:44;16.95;;;10.07;;
22441;SDS011;11388;54.456;9.752;2022-12-18T15:10:15;17.00;;;10.00;;
22441;SDS011;11388;54.456;9.752;2022-12-18T15:17:58;20.70;;;12.40;;
22441;SDS011;11388;54.456;9.752;2022-12-18T15:20:33;18.67;;;11.85;;
22441;SDS011;11388;54.456;9.752;2022-12-18T15:23:24;12.75;;;9.00;;
22441;SDS011;11388;54.456;9.752;2022-12-18T15:26:05;12.93;;;8.02;;
22441;SDS011;11388;54.456;9.752;2022-12-18T15:28:35;12.18;;;8.13;;
22441;SDS011;11388;54.456;9.752;2022-12-18T15:36:35;11.30;;;7.55;;
22441;SDS011;11388;54.456;9.752;2022-12-18T15:39:01;10.25;;;7.25;;
22441;SDS011;11388;54.456;9.752;2022-12-18T15:41:27;11.57;;;8.15;;
22441;SDS011;11388;54.456;9.752;2022-12-18T15:43:56;13.55;;;7.70;;
22441;SDS011;11388;54.456;9.752;2022-12-18T15:46:22;13.82;;;8.35;;
22441;SDS011;11388;54.456;9.752;2022-12-18T15:48:56;11.68;;;8.15;;
22441;SDS011;11388;54.456;9.752;2022-12-18T15:51:23;11.30;;;7.45;;
22441;SDS011;11388;54.456;9.752;2022-12-18T15:53:53;11.23;;;7.95;;
22441;SDS011;11388;54.456;9.752;2022-12-18T15:56:21;11.23;;;7.90;;
22441;SDS011;11388;54.456;9.752;2022-12-18T15:59:13;12.32;;;7.97;;
22441;SDS011;11388;54.456;9.752;2022-12-18T16:01:41;14.25;;;8.50;;
22441;SDS011;11388;54.456;9.752;2022-12-18T16:04:12;13.80;;;8.80;;
22441;SDS011;11388;54.456;9.752;2022-12-18T16:06:39;12.18;;;8.38;;
22441;SDS011;11388;54.456;9.752;2022-12-18T16:09:05;13.73;;;8.77;;
22441;SDS011;11388;54.456;9.752;2022-12-18T16:11:32;12.13;;;8.15;;
22441;SDS011;11388;54.456;9.752;2022-12-18T16:16:37;13.50;;;8.90;;
22441;SDS011;11388;54.456;9.752;2022-12-18T16:19:03;13.73;;;9.20;;
22441;SDS011;11388;54.456;9.752;2022-12-18T16:21:29;15.25;;;9.38;;
22441;SDS011;11388;54.456;9.752;2022-12-18T16:23:54;14.40;;;9.63;;
22441;SDS011;11388;54.456;9.752;2022-12-18T16:26:20;14.80;;;9.82;;
22441;SDS011;11388;54.456;9.752;2022-12-18T16:28:46;14.45;;;9.20;;
22441;SDS011;11388;54.456;9.752;2022-12-18T16:31:11;16.40;;;10.10;;
22441;SDS011;11388;54.456;9.752;2022-12-18T16:33:37;17.17;;;10.45;;
22441;SDS011;11388;54.456;9.752;2022-12-18T16:36:03;17.55;;;9.88;;
22441;SDS011;11388;54.456;9.752;2022-12-18T16:38:29;15.35;;;9.35;;
22441;SDS011;11388;54.456;9.752;2022-12-18T16:40:54;15.48;;;10.02;;
22441;SDS011;11388;54.456;9.752;2022-12-18T16:46:14;16.13;;;9.75;;
22441;SDS011;11388;54.456;9.752;2022-12-18T16:48:40;17.92;;;10.18;;
22441;SDS011;11388;54.456;9.752;2022-12-18T16:51:06;15.63;;;9.57;;
22441;SDS011;11388;54.456;9.752;2022-12-18T16:53:31;16.15;;;10.07;;
22441;SDS011;11388;54.456;9.752;2022-12-18T16:55:58;16.38;;;9.68;;
22441;SDS011;11388;54.456;9.752;2022-12-18T16:58:24;15.68;;;9.65;;
22441;SDS011;11388;54.456;9.752;2022-12-18T17:00:52;16.00;;;9.80;;
22441;SDS011;11388;54.456;9.752;2022-12-18T17:03:18;15.77;;;10.05;;
22441;SDS011;11388;54.456;9.752;2022-12-18T17:05:44;17.30;;;10.30;;